sensor_id;sensor_type;location;lat;lon;timestamp;pressure;altitude;pressure_sealevel;temperature;humidity
71195;BME280;58908;51.426;7.714;2022-12-07T00:00:43;99893.22;;;3.40;100.00
71195;BME280;58908;51.426;7.714;2022-12-07T00:03:09;99894.09;;;3.39;100.00
71195;BME280;58908;51.426;7.714;2022-12-07T00:05:35;99891.47;;;3.41;100.00
71195;BME280;58908;51.426;7.714;2022-12-07T00:08:03;99892.28;;;3.43;100.00
71195;BME280;58908;51.426;7.714;2022-12-07T00:10:30;99884.41;;;3.44;100.00
71195;BME280;58908;51.426;7.714;2022-12-07T00:12:58;99892.19;;;3.46;100.00
71195;BME280;58908;51.426;7.714;2022-12-07T00:15:25;99892.09;;;3.49;100.00
71195;BME280;58908;51.426;7.714;2022-12-07T00:17:51;99893.09;;;3.45;100.00
71195;BME280;58908;51.426;7.714;2022-12-07T00:20:17;99890.44;;;3.46;100.00
71195;BME280;58908;51.426;7.714;2022-12-07T00:22:43;99891.28;;;3.47;100.00
71195;BME280;58908;51.426;7.714;2022-12-07T00:25:11;99890.47;;;3.45;100.00
71195;BME280;58908;51.426;7.714;2022-12-07T00:27:37;99888.66;;;3.48;100.00
71195;BME280;58908;51.426;7.714;2022-12-07T00:30:04;99886.94;;;3.47;100.00
71195;BME280;58908;51.426;7.714;2022-12-07T00:32:30;99882.56;;;3.48;100.00
71195;BME280;58908;51.426;7.714;2022-12-07T00:34:57;99880.03;;;3.46;100.00
71195;BME280;58908;51.426;7.714;2022-12-07T00:37:23;99881.72;;;3.47;100.00
71195;BME280;58908;51.426;7.714;2022-12-07T00:39:49;99879.94;;;3.49;100.00
71195;BME280;58908;51.426;7.714;2022-12-07T00:42:17;99883.38;;;3.50;100.00
71195;BME280;58908;51.426;7.714;2022-12-07T00:44:43;99885.06;;;3.52;100.00
71195;BME280;58908;51.426;7.714;2022-12-07T00:47:09;99880.75;;;3.51;100.00
71195;BME280;58908;51.426;7.714;2022-12-07T00:49:35;99879.00;;;3.52;100.00
71195;BME280;58908;51.426;7.714;2022-12-07T00:52:02;99874.59;;;3.54;100.00
71195;BME280;58908;51.426;7.714;2022-12-07T00:54:28;99874.53;;;3.55;100.00
71195;BME280;58908;51.426;7.714;2022-12-07T00:56:54;99869.31;;;3.55;100.00
71195;BME280;58908;51.426;7.714;2022-12-07T00:59:22;99868.56;;;3.52;100.00
71195;BME280;58908;51.426;7.714;2022-12-07T01:01:48;99862.50;;;3.51;100.00
71195;BME280;58908;51.426;7.714;2022-12-07T01:04:14;99860.69;;;3.53;100.00
71195;BME280;58908;51.426;7.714;2022-12-07T01:06:41;99864.19;;;3.52;100.00
71195;BME280;58908;51.426;7.714;2022-12-07T01:09:07;99864.25;;;3.51;100.00
71195;BME280;58908;51.426;7.714;2022-12-07T01:11:33;99862.50;;;3.51;100.00
71195;BME280;58908;51.426;7.714;2022-12-07T01:14:00;99865.00;;;3.54;100.00
71195;BME280;58908;51.426;7.714;2022-12-07T01:16:28;99864.03;;;3.58;100.00
71195;BME280;58908;51.426;7.714;2022-12-07T01:18:56;99862.38;;;3.56;100.00
71195;BME280;58908;51.426;7.714;2022-12-07T01:21:22;99851.03;;;3.57;100.00
71195;BME280;58908;51.426;7.714;2022-12-07T01:23:49;99857.81;;;3.64;100.00
71195;BME280;58908;51.426;7.714;2022-12-07T01:26:16;99863.81;;;3.66;100.00
71195;BME280;58908;51.426;7.714;2022-12-07T01:28:43;99866.44;;;3.66;100.00
71195;BME280;58908;51.426;7.714;2022-12-07T01:31:10;99861.91;;;3.72;100.00
71195;BME280;58908;51.426;7.714;2022-12-07T01:33:38;99861.22;;;3.66;100.00
71195;BME280;58908;51.426;7.714;2022-12-07T01:36:08;99856.94;;;3.63;100.00
71195;BME280;58908;51.426;7.714;2022-12-07T01:38:38;99859.38;;;3.69;100.00
71195;BME280;58908;51.426;7.714;2022-12-07T01:41:04;99858.41;;;3.72;100.00
71195;BME280;58908;51.426;7.714;2022-12-07T01:43:31;99857.50;;;3.74;100.00
71195;BME280;58908;51.426;7.714;2022-12-07T01:45:58;99861.03;;;3.72;100.00
71195;BME280;58908;51.426;7.714;2022-12-07T01:48:26;99855.78;;;3.73;100.00
71195;BME280;58908;51.426;7.714;2022-12-07T01:50:55;99852.38;;;3.71;100.00
71195;BME280;58908;51.426;7.714;2022-12-07T01:53:24;99855.00;;;3.70;100.00
71195;BME280;58908;51.426;7.714;2022-12-07T01:55:51;99857.63;;;3.70;100.00
71195;BME280;58908;51.426;7.714;2022-12-07T01:58:18;99861.13;;;3.69;100.00
71195;BME280;58908;51.426;7.714;2022-12-07T02:00:44;99855.91;;;3.69;100.00
71195;BME280;58908;51.426;7.714;2022-12-07T02:03:11;99861.13;;;3.69;100.00
71195;BME280;58908;51.426;7.714;2022-12-07T02:05:41;99857.69;;;3.68;100.00
71195;BME280;58908;51.426;7.714;2022-12-07T02:08:10;99856.69;;;3.72;100.00
71195;BME280;58908;51.426;7.714;2022-12-07T02:10:36;99852.34;;;3.73;100.00
71195;BME280;58908;51.426;7.714;2022-12-07T02:13:03;99851.50;;;3.71;100.00
71195;BME280;58908;51.426;7.714;2022-12-07T02:15:33;99848.06;;;3.70;100.00
71195;BME280;58908;51.426;7.714;2022-12-07T02:18:05;99845.44;;;3.70;100.00
71195;BME280;58908;51.426;7.714;2022-12-07T02:20:33;99846.25;;;3.72;100.00
71195;BME280;58908;51.426;7.714;2022-12-07T02:25:57;99837.53;;;3.73;100.00
71195;BME280;58908;51.426;7.714;2022-12-07T02:28:29;99836.63;;;3.74;100.00
71195;BME280;58908;51.426;7.714;2022-12-07T02:31:00;99842.72;;;3.75;100.00
71195;BME280;58908;51.426;7.714;2022-12-07T02:33:28;99842.72;;;3.75;100.00
71195;BME280;58908;51.426;7.714;2022-12-07T02:35:59;99844.34;;;3.77;100.00
71195;BME280;58908;51.426;7.714;2022-12-07T02:38:28;99843.41;;;3.80;100.00
71195;BME280;58908;51.426;7.714;2022-12-07T02:40:57;99848.72;;;3.77;100.00
71195;BME280;58908;51.426;7.714;2022-12-07T02:43:28;99844.41;;;3.76;100.00
71195;BME280;58908;51.426;7.714;2022-12-07T02:45:58;99846.97;;;3.77;100.00
71195;BME280;58908;51.426;7.714;2022-12-07T02:48:27;99847.03;;;3.76;100.00
71195;BME280;58908;51.426;7.714;2022-12-07T02:50:54;99843.50;;;3.77;100.00
71195;BME280;58908;51.426;7.714;2022-12-07T02:53:30;99841.81;;;3.76;100.00
71195;BME280;58908;51.426;7.714;2022-12-07T02:55:57;99839.19;;;3.76;100.00
71195;BME280;58908;51.426;7.714;2022-12-07T02:58:27;99838.41;;;3.74;100.00
71195;BME280;58908;51.426;7.714;2022-12-07T03:01:00;99842.72;;;3.75;100.00
71195;BME280;58908;51.426;7.714;2022-12-07T03:03:30;99843.63;;;3.74;100.00
71195;BME280;58908;51.426;7.714;2022-12-07T03:06:04;99832.31;;;3.73;100.00
71195;BME280;58908;51.426;7.714;2022-12-07T03:08:34;99840.94;;;3.75;100.00
71195;BME280;58908;51.426;7.714;2022-12-07T03:11:03;99840.94;;;3.75;100.00
71195;BME280;58908;51.426;7.714;2022-12-07T03:13:33;99834.81;;;3.76;100.00
71195;BME280;58908;51.426;7.714;2022-12-07T03:16:02;99840.03;;;3.76;100.00
71195;BME280;58908;51.426;7.714;2022-12-07T03:18:32;99840.09;;;3.75;100.00
71195;BME280;58908;51.426;7.714;2022-12-07T03:21:02;99839.28;;;3.73;100.00
71195;BME280;58908;51.426;7.714;2022-12-07T03:23:31;99832.31;;;3.73;100.00
71195;BME280;58908;51.426;7.714;2022-12-07T03:25:59;99839.28;;;3.73;100.00
71195;BME280;58908;51.426;7.714;2022-12-07T03:28:27;99828.88;;;3.71;100.00
71195;BME280;58908;51.426;7.714;2022-12-07T03:30:56;99822.91;;;3.68;100.00
71195;BME280;58908;51.426;7.714;2022-12-07T03:33:24;99827.31;;;3.66;100.00
71195;BME280;58908;51.426;7.714;2022-12-07T03:35:53;99829.19;;;3.61;100.00
71195;BME280;58908;51.426;7.714;2022-12-07T03:38:23;99827.47;;;3.60;100.00
71195;BME280;58908;51.426;7.714;2022-12-07T03:40:52;99824.13;;;3.56;100.00
71195;BME280;58908;51.426;7.714;2022-12-07T03:43:21;99828.50;;;3.54;100.00
71195;BME280;58908;51.426;7.714;2022-12-07T03:45:49;99819.75;;;3.57;100.00
71195;BME280;58908;51.426;7.714;2022-12-07T03:48:19;99832.69;;;3.60;100.00
71195;BME280;58908;51.426;7.714;2022-12-07T03:50:49;99830.94;;;3.60;100.00
71195;BME280;58908;51.426;7.714;2022-12-07T03:53:19;99830.97;;;3.59;100.00
71195;BME280;58908;51.426;7.714;2022-12-07T03:55:48;99831.84;;;3.59;100.00
71195;BME280;58908;51.426;7.714;2022-12-07T03:58:15;99829.25;;;3.59;100.00
71195;BME280;58908;51.426;7.714;2022-12-07T04:00:43;99826.66;;;3.58;100.00
71195;BME280;58908;51.426;7.714;2022-12-07T04:03:09;99827.66;;;3.54;100.00
71195;BME280;58908;51.426;7.714;2022-12-07T04:05:35;99826.84;;;3.52;100.00
71195;BME280;58908;51.426;7.714;2022-12-07T04:08:02;99825.97;;;3.51;100.00
71195;BME280;58908;51.426;7.714;2022-12-07T04:10:30;99819.97;;;3.49;100.00
71195;BME280;58908;51.426;7.714;2022-12-07T04:12:56;99826.09;;;3.47;100.00
71195;BME280;58908;51.426;7.714;2022-12-07T04:15:22;99820.88;;;3.48;100.00
71195;BME280;58908;51.426;7.714;2022-12-07T04:17:48;99823.50;;;3.47;100.00
71195;BME280;58908;51.426;7.714;2022-12-07T04:20:15;99823.59;;;3.44;100.00
71195;BME280;58908;51.426;7.714;2022-12-07T04:22:42;99824.53;;;3.41;100.00
71195;BME280;58908;51.426;7.714;2022-12-07T04:25:08;99826.28;;;3.41;100.00
71195;BME280;58908;51.426;7.714;2022-12-07T04:27:36;99823.75;;;3.38;100.00
71195;BME280;58908;51.426;7.714;2022-12-07T04:30:02;99822.03;;;3.37;100.00
71195;BME280;58908;51.426;7.714;2022-12-07T04:32:29;99821.22;;;3.35;100.00
71195;BME280;58908;51.426;7.714;2022-12-07T04:34:55;99830.75;;;3.36;100.00
71195;BME280;58908;51.426;7.714;2022-12-07T04:37:21;99817.84;;;3.31;100.00
71195;BME280;58908;51.426;7.714;2022-12-07T04:39:47;99817.84;;;3.31;100.00
71195;BME280;58908;51.426;7.714;2022-12-07T04:42:14;99821.28;;;3.33;100.00
71195;BME280;58908;51.426;7.714;2022-12-07T04:44:41;99822.16;;;3.32;100.00
71195;BME280;58908;51.426;7.714;2022-12-07T04:47:07;99826.53;;;3.32;100.00
71195;BME280;58908;51.426;7.714;2022-12-07T04:49:34;99821.22;;;3.35;100.00
71195;BME280;58908;51.426;7.714;2022-12-07T04:52:00;99823.13;;;3.30;100.00
71195;BME280;58908;51.426;7.714;2022-12-07T04:54:26;99817.84;;;3.31;100.00
71195;BME280;58908;51.426;7.714;2022-12-07T04:56:53;99815.34;;;3.28;100.00
71195;BME280;58908;51.426;7.714;2022-12-07T04:59:19;99812.00;;;3.23;100.00
71195;BME280;58908;51.426;7.714;2022-12-07T05:01:46;99812.94;;;3.21;100.00
71195;BME280;58908;51.426;7.714;2022-12-07T05:04:13;99819.00;;;3.21;100.00
71195;BME280;58908;51.426;7.714;2022-12-07T05:06:41;99812.97;;;3.19;100.00
71195;BME280;58908;51.426;7.714;2022-12-07T05:09:07;99814.66;;;3.22;100.00
71195;BME280;58908;51.426;7.714;2022-12-07T05:11:33;99812.84;;;3.24;100.00
71195;BME280;58908;51.426;7.714;2022-12-07T05:14:07;99806.81;;;3.23;100.00
71195;BME280;58908;51.426;7.714;2022-12-07T05:16:33;99803.41;;;3.20;100.00
71195;BME280;58908;51.426;7.714;2022-12-07T05:19:01;99808.53;;;3.23;100.00
71195;BME280;58908;51.426;7.714;2022-12-07T05:21:27;99810.31;;;3.22;100.00
71195;BME280;58908;51.426;7.714;2022-12-07T05:23:54;99816.34;;;3.23;100.00
71195;BME280;58908;51.426;7.714;2022-12-07T05:26:20;99818.13;;;3.22;100.00
71195;BME280;58908;51.426;7.714;2022-12-07T05:28:49;99811.31;;;3.17;100.00
71195;BME280;58908;51.426;7.714;2022-12-07T05:31:15;99818.25;;;3.18;100.00
71195;BME280;58908;51.426;7.714;2022-12-07T05:33:41;99814.66;;;3.22;100.00
71195;BME280;58908;51.426;7.714;2022-12-07T05:36:09;99812.94;;;3.21;100.00
71195;BME280;58908;51.426;7.714;2022-12-07T05:38:35;99811.16;;;3.21;100.00
71195;BME280;58908;51.426;7.714;2022-12-07T05:41:02;99806.84;;;3.20;100.00
71195;BME280;58908;51.426;7.714;2022-12-07T05:43:28;99801.72;;;3.17;100.00
71195;BME280;58908;51.426;7.714;2022-12-07T05:45:53;99799.09;;;3.19;100.00
71195;BME280;58908;51.426;7.714;2022-12-07T05:48:20;99812.13;;;3.19;100.00
71195;BME280;58908;51.426;7.714;2022-12-07T05:50:47;99806.03;;;3.20;100.00
71195;BME280;58908;51.426;7.714;2022-12-07T05:53:14;99809.47;;;3.20;100.00
71195;BME280;58908;51.426;7.714;2022-12-07T05:55:41;99811.25;;;3.18;100.00
71195;BME280;58908;51.426;7.714;2022-12-07T05:58:07;99812.25;;;3.14;100.00
71195;BME280;58908;51.426;7.714;2022-12-07T06:00:50;99804.44;;;3.14;100.00
71195;BME280;58908;51.426;7.714;2022-12-07T06:03:17;99796.75;;;3.08;100.00
71195;BME280;58908;51.426;7.714;2022-12-07T06:05:43;99799.44;;;3.07;100.00
71195;BME280;58908;51.426;7.714;2022-12-07T06:08:09;99803.81;;;3.05;100.00
71195;BME280;58908;51.426;7.714;2022-12-07T06:10:37;99805.47;;;3.07;100.00
71195;BME280;58908;51.426;7.714;2022-12-07T06:13:03;99800.28;;;3.07;100.00
71195;BME280;58908;51.426;7.714;2022-12-07T06:15:28;99801.13;;;3.08;100.00
71195;BME280;58908;51.426;7.714;2022-12-07T06:17:55;99796.81;;;3.07;100.00
71195;BME280;58908;51.426;7.714;2022-12-07T06:20:21;99799.44;;;3.07;100.00
71195;BME280;58908;51.426;7.714;2022-12-07T06:22:47;99809.78;;;3.08;100.00
71195;BME280;58908;51.426;7.714;2022-12-07T06:25:13;99802.03;;;3.07;100.00
71195;BME280;58908;51.426;7.714;2022-12-07T06:27:41;99806.34;;;3.08;100.00
71195;BME280;58908;51.426;7.714;2022-12-07T06:30:07;99804.56;;;3.08;100.00
71195;BME280;58908;51.426;7.714;2022-12-07T06:32:35;99808.97;;;3.06;100.00
71195;BME280;58908;51.426;7.714;2022-12-07T06:35:02;99797.75;;;3.04;100.00
71195;BME280;58908;51.426;7.714;2022-12-07T06:37:28;99809.88;;;3.05;100.00
71195;BME280;58908;51.426;7.714;2022-12-07T06:39:54;99819.38;;;3.08;100.00
71195;BME280;58908;51.426;7.714;2022-12-07T06:42:21;99815.91;;;3.07;100.00
71195;BME280;58908;51.426;7.714;2022-12-07T06:44:48;99819.44;;;3.05;100.00
71195;BME280;58908;51.426;7.714;2022-12-07T06:47:15;99812.50;;;3.05;100.00
71195;BME280;58908;51.426;7.714;2022-12-07T06:49:41;99812.50;;;3.05;100.00
71195;BME280;58908;51.426;7.714;2022-12-07T06:52:07;99816.00;;;3.04;100.00
71195;BME280;58908;51.426;7.714;2022-12-07T06:54:33;99823.78;;;3.06;100.00
71195;BME280;58908;51.426;7.714;2022-12-07T06:57:00;99822.00;;;3.06;100.00
71195;BME280;58908;51.426;7.714;2022-12-07T06:59:26;99827.19;;;3.08;100.00
71195;BME280;58908;51.426;7.714;2022-12-07T07:01:54;99818.50;;;3.07;100.00
71195;BME280;58908;51.426;7.714;2022-12-07T07:04:20;99814.09;;;3.09;100.00
71195;BME280;58908;51.426;7.714;2022-12-07T07:06:46;99823.63;;;3.10;100.00
71195;BME280;58908;51.426;7.714;2022-12-07T07:09:12;99817.56;;;3.10;100.00
71195;BME280;58908;51.426;7.714;2022-12-07T07:11:39;99823.69;;;3.09;100.00
71195;BME280;58908;51.426;7.714;2022-12-07T07:14:05;99820.28;;;3.07;100.00
71195;BME280;58908;51.426;7.714;2022-12-07T07:16:31;99815.09;;;3.05;100.00
71195;BME280;58908;51.426;7.714;2022-12-07T07:18:59;99821.19;;;3.04;100.00
71195;BME280;58908;51.426;7.714;2022-12-07T07:21:25;99821.22;;;3.03;100.00
71195;BME280;58908;51.426;7.714;2022-12-07T07:23:51;99826.44;;;3.03;100.00
71195;BME280;58908;51.426;7.714;2022-12-07T07:26:17;99822.13;;;3.02;100.00
71195;BME280;58908;51.426;7.714;2022-12-07T07:28:44;99823.91;;;3.01;100.00
71195;BME280;58908;51.426;7.714;2022-12-07T07:31:10;99833.44;;;3.01;100.00
71195;BME280;58908;51.426;7.714;2022-12-07T07:33:36;99829.09;;;3.01;100.00
71195;BME280;58908;51.426;7.714;2022-12-07T07:36:04;99826.53;;;3.00;100.00
71195;BME280;58908;51.426;7.714;2022-12-07T07:38:31;99830.00;;;3.00;100.00
71195;BME280;58908;51.426;7.714;2022-12-07T07:40:57;99830.03;;;2.99;100.00
71195;BME280;58908;51.426;7.714;2022-12-07T07:43:23;99828.25;;;2.99;100.00
71195;BME280;58908;51.426;7.714;2022-12-07T07:45:49;99826.63;;;2.95;100.00
71195;BME280;58908;51.426;7.714;2022-12-07T07:48:16;99824.00;;;2.97;100.00
71195;BME280;58908;51.426;7.714;2022-12-07T07:50:42;99831.81;;;2.97;100.00
71195;BME280;58908;51.426;7.714;2022-12-07T07:53:09;99831.94;;;2.92;100.00
71195;BME280;58908;51.426;7.714;2022-12-07T07:55:36;99834.53;;;2.92;100.00
71195;BME280;58908;51.426;7.714;2022-12-07T07:58:02;99830.16;;;2.93;100.00
71195;BME280;58908;51.426;7.714;2022-12-07T08:00:28;99832.63;;;2.99;100.00
71195;BME280;58908;51.426;7.714;2022-12-07T08:02:54;99832.53;;;3.02;100.00
71195;BME280;58908;51.426;7.714;2022-12-07T08:05:21;99839.53;;;3.01;100.00
71195;BME280;58908;51.426;7.714;2022-12-07T08:07:47;99828.13;;;3.05;100.00
71195;BME280;58908;51.426;7.714;2022-12-07T08:10:15;99838.50;;;3.07;100.00
71195;BME280;58908;51.426;7.714;2022-12-07T08:12:41;99839.34;;;3.07;100.00
71195;BME280;58908;51.426;7.714;2022-12-07T08:15:22;99834.91;;;3.11;100.00
71195;BME280;58908;51.426;7.714;2022-12-07T08:17:48;99835.91;;;3.07;100.00
71195;BME280;58908;51.426;7.714;2022-12-07T08:20:14;99844.53;;;3.09;100.00
71195;BME280;58908;51.426;7.714;2022-12-07T08:22:41;99836.72;;;3.09;100.00
71195;BME280;58908;51.426;7.714;2022-12-07T08:25:07;99847.91;;;3.12;100.00
71195;BME280;58908;51.426;7.714;2022-12-07T08:27:35;99851.38;;;3.13;100.00
71195;BME280;58908;51.426;7.714;2022-12-07T08:30:01;99845.19;;;3.17;100.00
71195;BME280;58908;51.426;7.714;2022-12-07T08:32:27;99846.00;;;3.19;100.00
71195;BME280;58908;51.426;7.714;2022-12-07T08:34:54;99858.16;;;3.18;100.00
71195;BME280;58908;51.426;7.714;2022-12-07T08:37:20;99849.44;;;3.19;100.00
71195;BME280;58908;51.426;7.714;2022-12-07T08:39:46;99851.25;;;3.17;100.00
71195;BME280;58908;51.426;7.714;2022-12-07T08:42:12;99851.34;;;3.14;100.00
71195;BME280;58908;51.426;7.714;2022-12-07T08:44:40;99848.63;;;3.19;100.00
71195;BME280;58908;51.426;7.714;2022-12-07T08:47:06;99858.88;;;3.25;100.00
71195;BME280;58908;51.426;7.714;2022-12-07T08:49:34;99853.72;;;3.23;100.00
71195;BME280;58908;51.426;7.714;2022-12-07T08:52:02;99856.38;;;3.20;100.00
71195;BME280;58908;51.426;7.714;2022-12-07T08:54:30;99853.03;;;3.17;100.00
71195;BME280;58908;51.426;7.714;2022-12-07T08:56:56;99848.56;;;3.20;100.00
71195;BME280;58908;51.426;7.714;2022-12-07T08:59:22;99845.03;;;3.23;100.00
71195;BME280;58908;51.426;7.714;2022-12-07T09:01:50;99850.09;;;3.29;100.00
71195;BME280;58908;51.426;7.714;2022-12-07T09:04:16;99852.50;;;3.35;100.00
71195;BME280;58908;51.426;7.714;2022-12-07T09:06:43;99851.56;;;3.39;100.00
71195;BME280;58908;51.426;7.714;2022-12-07T09:09:09;99843.59;;;3.43;100.00
71195;BME280;58908;51.426;7.714;2022-12-07T09:11:37;99850.31;;;3.52;100.00
71195;BME280;58908;51.426;7.714;2022-12-07T09:14:04;99852.25;;;3.45;100.00
71195;BME280;58908;51.426;7.714;2022-12-07T09:16:30;99847.78;;;3.49;100.00
71195;BME280;58908;51.426;7.714;2022-12-07T09:18:58;99833.72;;;3.54;100.00
71195;BME280;58908;51.426;7.714;2022-12-07T09:21:24;99829.19;;;3.61;100.00
71195;BME280;58908;51.426;7.714;2022-12-07T09:23:50;99833.59;;;3.59;100.00
71195;BME280;58908;51.426;7.714;2022-12-07T09:26:16;99843.88;;;3.65;100.00
71195;BME280;58908;51.426;7.714;2022-12-07T09:28:42;99838.25;;;3.78;100.00
71195;BME280;58908;51.426;7.714;2022-12-07T09:31:09;99838.03;;;3.86;100.00
71195;BME280;58908;51.426;7.714;2022-12-07T09:33:35;99838.25;;;3.78;100.00
71195;BME280;58908;51.426;7.714;2022-12-07T09:36:03;99839.06;;;3.80;100.00
71195;BME280;58908;51.426;7.714;2022-12-07T09:38:30;99835.44;;;3.86;100.00
71195;BME280;58908;51.426;7.714;2022-12-07T09:40:57;99831.72;;;3.93;100.00
71195;BME280;58908;51.426;7.714;2022-12-07T09:43:29;99831.66;;;3.96;100.00
71195;BME280;58908;51.426;7.714;2022-12-07T09:45:55;99834.41;;;3.91;100.00
71195;BME280;58908;51.426;7.714;2022-12-07T09:48:22;99831.78;;;3.91;100.00
71195;BME280;58908;51.426;7.714;2022-12-07T09:50:51;99834.16;;;3.99;100.00
71195;BME280;58908;51.426;7.714;2022-12-07T09:53:22;99828.03;;;4.00;100.00
71195;BME280;58908;51.426;7.714;2022-12-07T09:55:50;99836.78;;;3.99;100.00
71195;BME280;58908;51.426;7.714;2022-12-07T09:58:17;99827.53;;;3.87;100.00
71195;BME280;58908;51.426;7.714;2022-12-07T10:00:45;99822.31;;;3.87;100.00
71195;BME280;58908;51.426;7.714;2022-12-07T10:03:11;99825.69;;;3.91;100.00
71195;BME280;58908;51.426;7.714;2022-12-07T10:05:38;99824.63;;;3.98;100.00
71195;BME280;58908;51.426;7.714;2022-12-07T10:08:07;99825.59;;;3.94;100.00
71195;BME280;58908;51.426;7.714;2022-12-07T10:10:35;99819.06;;;4.08;100.00
71195;BME280;58908;51.426;7.714;2022-12-07T10:13:04;99821.06;;;4.28;100.00
71195;BME280;58908;51.426;7.714;2022-12-07T10:15:44;99821.84;;;4.31;100.00
71195;BME280;58908;51.426;7.714;2022-12-07T10:21:03;99819.31;;;4.01;100.00
71195;BME280;58908;51.426;7.714;2022-12-07T10:23:29;99824.72;;;3.95;100.00
71195;BME280;58908;51.426;7.714;2022-12-07T10:25:57;99816.13;;;3.91;100.00
71195;BME280;58908;51.426;7.714;2022-12-07T10:28:27;99817.97;;;3.88;100.00
71195;BME280;58908;51.426;7.714;2022-12-07T10:30:59;99808.47;;;3.85;100.00
71195;BME280;58908;51.426;7.714;2022-12-07T10:33:28;99816.06;;;3.93;100.00
71195;BME280;58908;51.426;7.714;2022-12-07T10:35:54;99803.66;;;4.01;100.00
71195;BME280;58908;51.426;7.714;2022-12-07T10:38:21;99813.47;;;3.93;100.00
71195;BME280;58908;51.426;7.714;2022-12-07T10:40:47;99812.78;;;3.86;100.00
71195;BME280;58908;51.426;7.714;2022-12-07T10:43:17;99810.25;;;3.85;100.00
71195;BME280;58908;51.426;7.714;2022-12-07T10:46:04;99798.69;;;3.92;100.00
71195;BME280;58908;51.426;7.714;2022-12-07T10:48:32;99795.97;;;3.96;100.00
71195;BME280;58908;51.426;7.714;2022-12-07T10:51:03;99795.59;;;4.08;100.00
71195;BME280;58908;51.426;7.714;2022-12-07T10:53:37;99789.69;;;4.02;100.00
71195;BME280;58908;51.426;7.714;2022-12-07T10:56:11;99788.13;;;3.96;100.00
71195;BME280;58908;51.426;7.714;2022-12-07T10:58:50;99778.72;;;3.91;100.00
71195;BME280;58908;51.426;7.714;2022-12-07T11:01:21;99778.50;;;3.98;100.00
71195;BME280;58908;51.426;7.714;2022-12-07T11:03:53;99787.00;;;4.05;100.00
71195;BME280;58908;51.426;7.714;2022-12-07T11:06:25;99774.97;;;3.99;100.00
71195;BME280;58908;51.426;7.714;2022-12-07T11:08:59;99778.22;;;4.07;100.00
71195;BME280;58908;51.426;7.714;2022-12-07T11:11:30;99776.91;;;4.22;100.00
71195;BME280;58908;51.426;7.714;2022-12-07T11:14:02;99771.72;;;4.20;100.00
71195;BME280;58908;51.426;7.714;2022-12-07T11:16:48;99767.16;;;4.27;100.00
71195;BME280;58908;51.426;7.714;2022-12-07T11:19:19;99764.00;;;4.43;100.00
71195;BME280;58908;51.426;7.714;2022-12-07T11:21:50;99759.44;;;4.50;100.00
71195;BME280;58908;51.426;7.714;2022-12-07T11:24:23;99758.59;;;4.49;100.00
71195;BME280;58908;51.426;7.714;2022-12-07T11:26:56;99755.84;;;4.54;100.00
71195;BME280;58908;51.426;7.714;2022-12-07T11:32:12;99750.25;;;4.64;100.00
71195;BME280;58908;51.426;7.714;2022-12-07T11:34:43;99747.06;;;4.56;100.00
71195;BME280;58908;51.426;7.714;2022-12-07T11:37:15;99740.28;;;4.51;100.00
71195;BME280;58908;51.426;7.714;2022-12-07T11:39:44;99739.22;;;4.56;100.00
71195;BME280;58908;51.426;7.714;2022-12-07T11:42:14;99735.47;;;4.63;100.00
71195;BME280;58908;51.426;7.714;2022-12-07T11:44:44;99736.50;;;4.59;100.00
71195;BME280;58908;51.426;7.714;2022-12-07T11:47:15;99729.34;;;4.64;100.00
71195;BME280;58908;51.426;7.714;2022-12-07T11:49:44;99733.16;;;4.54;100.00
71195;BME280;58908;51.426;7.714;2022-12-07T11:52:16;99734.78;;;4.58;100.00
71195;BME280;58908;51.426;7.714;2022-12-07T11:54:44;99736.41;;;4.60;100.00
71195;BME280;58908;51.426;7.714;2022-12-07T11:57:13;99739.03;;;4.60;100.00
71195;BME280;58908;51.426;7.714;2022-12-07T11:59:44;99741.50;;;4.65;100.00
71195;BME280;58908;51.426;7.714;2022-12-07T12:02:14;99739.75;;;4.65;100.00
71195;BME280;58908;51.426;7.714;2022-12-07T12:04:45;99732.38;;;4.52;100.00
71195;BME280;58908;51.426;7.714;2022-12-07T12:07:14;99727.88;;;4.57;100.00
71195;BME280;58908;51.426;7.714;2022-12-07T12:09:43;99723.69;;;4.52;100.00
71195;BME280;58908;51.426;7.714;2022-12-07T12:15:01;99726.88;;;4.59;100.00
71195;BME280;58908;51.426;7.714;2022-12-07T12:17:39;99721.91;;;4.52;100.00
71195;BME280;58908;51.426;7.714;2022-12-07T12:20:16;99721.00;;;4.53;100.00
71195;BME280;58908;51.426;7.714;2022-12-07T12:22:45;99714.16;;;4.51;100.00
71195;BME280;58908;51.426;7.714;2022-12-07T12:25:16;99715.09;;;4.48;100.00
71195;BME280;58908;51.426;7.714;2022-12-07T12:27:46;99722.88;;;4.50;100.00
71195;BME280;58908;51.426;7.714;2022-12-07T12:30:24;99719.41;;;4.49;100.00
71195;BME280;58908;51.426;7.714;2022-12-07T12:32:52;99711.47;;;4.52;100.00
71195;BME280;58908;51.426;7.714;2022-12-07T12:35:27;99711.47;;;4.52;100.00
71195;BME280;58908;51.426;7.714;2022-12-07T12:37:55;99705.03;;;4.62;100.00
71195;BME280;58908;51.426;7.714;2022-12-07T12:40:42;99705.94;;;4.61;100.00
71195;BME280;58908;51.426;7.714;2022-12-07T12:46:05;99703.06;;;4.68;100.00
71195;BME280;58908;51.426;7.714;2022-12-07T12:48:53;99698.59;;;4.72;100.00
71195;BME280;58908;51.426;7.714;2022-12-07T12:51:35;99708.03;;;4.76;100.00
71195;BME280;58908;51.426;7.714;2022-12-07T12:54:03;99706.59;;;4.67;100.00
71195;BME280;58908;51.426;7.714;2022-12-07T12:56:34;99698.88;;;4.64;100.00
71195;BME280;58908;51.426;7.714;2022-12-07T12:59:18;99698.25;;;4.57;100.00
71195;BME280;58908;51.426;7.714;2022-12-07T13:01:48;99693.78;;;4.60;100.00
71195;BME280;58908;51.426;7.714;2022-12-07T13:04:21;99691.22;;;4.58;100.00
71195;BME280;58908;51.426;7.714;2022-12-07T13:06:49;99685.97;;;4.60;100.00
71195;BME280;58908;51.426;7.714;2022-12-07T13:09:20;99685.97;;;4.60;100.00
71195;BME280;58908;51.426;7.714;2022-12-07T13:11:48;99685.91;;;4.62;100.00
71195;BME280;58908;51.426;7.714;2022-12-07T13:17:01;99679.25;;;4.77;100.00
71195;BME280;58908;51.426;7.714;2022-12-07T13:25:18;99674.22;;;4.71;100.00
71195;BME280;58908;51.426;7.714;2022-12-07T13:27:47;99669.97;;;4.69;100.00